createdAt,value
2019-03-27T00:02:09.483Z,24.40
2019-03-27T00:04:40.762Z,22.85
2019-03-27T00:07:12.089Z,26.00
2019-03-27T00:09:43.426Z,24.80
2019-03-27T00:12:14.711Z,26.97
2019-03-27T00:14:46.643Z,23.30
2019-03-27T00:17:17.999Z,23.42
2019-03-27T00:19:49.310Z,28.30
2019-03-27T00:22:20.584Z,29.67
2019-03-27T00:24:51.850Z,26.05
2019-03-27T00:27:23.225Z,26.85
2019-03-27T00:29:54.796Z,22.98
2019-03-27T00:32:26.177Z,25.37
2019-03-27T00:34:57.429Z,22.20
2019-03-27T00:37:28.758Z,24.10
2019-03-27T00:40:00.354Z,27.62
2019-03-27T00:42:32.102Z,25.17
2019-03-27T00:45:03.533Z,24.37
2019-03-27T00:47:35.037Z,27.25
2019-03-27T00:50:06.528Z,23.50
2019-03-27T00:52:38.211Z,22.98
2019-03-27T00:55:10.369Z,24.82
2019-03-27T00:57:42.001Z,27.42
2019-03-27T01:00:25.678Z,28.27
2019-03-27T01:02:57.070Z,27.27
2019-03-27T01:05:28.606Z,27.80
2019-03-27T01:07:59.904Z,25.80
2019-03-27T01:10:31.267Z,25.73
2019-03-27T01:13:02.646Z,24.90
2019-03-27T01:15:39.811Z,25.82
2019-03-27T01:18:07.283Z,27.35
2019-03-27T01:20:39.154Z,24.85
2019-03-27T01:23:10.521Z,24.32
2019-03-27T01:25:42.125Z,30.90
2019-03-27T01:28:13.612Z,27.35
2019-03-27T01:30:44.884Z,25.55
2019-03-27T01:33:16.156Z,26.52
2019-03-27T01:35:47.494Z,26.75
2019-03-27T01:38:19.065Z,26.55
2019-03-27T01:40:50.715Z,28.65
2019-03-27T01:43:22.028Z,26.97
2019-03-27T01:45:53.575Z,27.65
2019-03-27T01:48:24.856Z,25.20
2019-03-27T01:50:56.242Z,26.68
2019-03-27T01:53:27.850Z,28.27
2019-03-27T01:55:59.390Z,28.80
2019-03-27T01:58:31.760Z,25.25
2019-03-27T02:01:03.102Z,27.02
2019-03-27T02:03:34.726Z,27.40
2019-03-27T02:06:05.999Z,28.60
2019-03-27T02:08:37.269Z,28.38
2019-03-27T02:11:08.561Z,25.77
2019-03-27T02:13:39.873Z,31.50
2019-03-27T02:16:11.507Z,30.65
2019-03-27T02:18:42.778Z,27.32
2019-03-27T02:21:15.223Z,30.27
2019-03-27T02:23:46.822Z,33.10
2019-03-27T02:26:18.170Z,32.55
2019-03-27T02:28:49.449Z,30.37
2019-03-27T02:31:20.706Z,33.10
2019-03-27T02:33:51.996Z,28.92
2019-03-27T02:36:23.417Z,34.30
2019-03-27T02:38:54.702Z,32.27
2019-03-27T02:41:26.888Z,29.05
2019-03-27T02:43:58.387Z,34.30
2019-03-27T02:46:30.185Z,29.30
2019-03-27T02:49:01.860Z,32.65
2019-03-27T02:51:33.101Z,29.20
2019-03-27T02:54:04.437Z,32.53
2019-03-27T02:56:36.024Z,34.95
2019-03-27T02:59:07.276Z,31.25
2019-03-27T03:01:38.654Z,31.37
2019-03-27T03:04:09.916Z,34.35
2019-03-27T03:06:41.199Z,35.25
2019-03-27T03:09:12.472Z,32.45
2019-03-27T03:11:43.747Z,31.02
2019-03-27T03:14:15.023Z,32.50
2019-03-27T03:16:46.398Z,31.45
2019-03-27T03:19:17.917Z,32.87
2019-03-27T03:21:49.259Z,30.82
2019-03-27T03:24:20.581Z,35.17
2019-03-27T03:26:51.960Z,31.55
2019-03-27T03:29:23.201Z,33.33
2019-03-27T03:31:54.547Z,34.65
2019-03-27T03:34:26.315Z,35.88
2019-03-27T03:36:57.615Z,31.73
2019-03-27T03:39:28.887Z,36.88
2019-03-27T03:42:00.297Z,33.05
2019-03-27T03:44:31.582Z,32.30
2019-03-27T03:47:03.238Z,31.65
2019-03-27T03:49:34.919Z,32.08
2019-03-27T03:52:06.445Z,38.53
2019-03-27T03:54:37.781Z,35.50
2019-03-27T03:57:10.331Z,37.38
2019-03-27T03:59:42.255Z,36.28
2019-03-27T04:02:16.405Z,37.80
2019-03-27T04:04:48.209Z,37.53
2019-03-27T04:07:19.760Z,36.38
2019-03-27T04:09:51.020Z,39.27
2019-03-27T04:12:22.343Z,37.73
2019-03-27T04:14:53.664Z,37.73
2019-03-27T04:17:26.313Z,38.67
2019-03-27T04:19:58.023Z,33.73
2019-03-27T04:22:29.615Z,35.48
2019-03-27T04:25:00.898Z,39.55
2019-03-27T04:27:32.171Z,40.10
2019-03-27T04:30:04.135Z,39.13
2019-03-27T04:32:35.429Z,41.40
2019-03-27T04:35:07.543Z,39.55
2019-03-27T04:37:39.748Z,37.95
2019-03-27T04:40:11.305Z,36.93
2019-03-27T04:42:42.721Z,43.48
2019-03-27T04:45:15.953Z,45.60
2019-03-27T04:47:47.228Z,45.52
2019-03-27T04:50:18.594Z,43.13
2019-03-27T04:52:50.474Z,43.90
2019-03-27T04:55:22.134Z,45.88
2019-03-27T04:57:53.726Z,45.90
2019-03-27T05:00:25.062Z,50.52
2019-03-27T05:02:56.381Z,47.55
2019-03-27T05:05:27.733Z,45.48
2019-03-27T05:07:58.989Z,41.87
2019-03-27T05:10:30.264Z,49.25
2019-03-27T05:13:01.551Z,51.15
2019-03-27T05:15:33.228Z,47.95
2019-03-27T05:18:04.507Z,44.70
2019-03-27T05:20:36.104Z,45.58
2019-03-27T05:23:07.451Z,46.58
2019-03-27T05:25:38.711Z,47.53
2019-03-27T05:28:10.069Z,43.15
2019-03-27T05:30:41.588Z,45.93
2019-03-27T05:33:13.207Z,44.50
2019-03-27T05:35:44.497Z,46.10
2019-03-27T05:38:15.783Z,50.38
2019-03-27T05:40:47.042Z,45.07
2019-03-27T05:43:18.697Z,46.68
2019-03-27T05:45:50.063Z,49.07
2019-03-27T05:48:21.370Z,44.80
2019-03-27T05:50:52.640Z,44.25
2019-03-27T05:53:23.912Z,52.78
2019-03-27T05:55:55.207Z,50.80
2019-03-27T05:58:26.554Z,49.23
2019-03-27T06:00:58.915Z,48.78
2019-03-27T06:03:30.192Z,45.08
2019-03-27T06:06:01.462Z,51.30
2019-03-27T06:08:32.764Z,50.17
2019-03-27T06:11:04.118Z,51.07
2019-03-27T06:13:35.730Z,48.05
2019-03-27T06:16:07.433Z,50.57
2019-03-27T06:18:39.647Z,46.92
2019-03-27T06:21:10.902Z,56.85
2019-03-27T06:23:42.256Z,46.65
2019-03-27T06:26:13.496Z,46.48
2019-03-27T06:28:44.761Z,48.00
2019-03-27T06:31:16.085Z,49.53
2019-03-27T06:33:47.427Z,54.50
2019-03-27T06:36:18.958Z,50.20
2019-03-27T06:38:50.229Z,51.77
2019-03-27T06:41:21.484Z,53.45
2019-03-27T06:43:52.782Z,52.40
2019-03-27T06:46:24.637Z,63.13
2019-03-27T06:48:55.943Z,57.57
2019-03-27T06:51:39.431Z,48.58
2019-03-27T06:54:00.343Z,54.80
2019-03-27T06:56:31.677Z,57.27
2019-03-27T06:59:02.967Z,54.73
2019-03-27T07:01:34.622Z,53.30
2019-03-27T07:04:10.904Z,49.65
2019-03-27T07:06:38.886Z,48.65
2019-03-27T07:09:10.523Z,48.28
2019-03-27T07:11:42.150Z,51.05
2019-03-27T07:14:13.453Z,60.23
2019-03-27T07:16:44.881Z,51.90
2019-03-27T07:19:16.433Z,54.55
2019-03-27T07:21:47.827Z,44.38
2019-03-27T07:24:19.590Z,48.13
2019-03-27T07:26:50.857Z,50.35
2019-03-27T07:29:23.082Z,60.12
2019-03-27T07:31:54.365Z,53.45
2019-03-27T07:34:25.664Z,49.05
2019-03-27T07:36:56.964Z,54.60
2019-03-27T07:39:28.251Z,50.77
2019-03-27T07:41:59.761Z,58.25
2019-03-27T07:44:31.014Z,51.15
2019-03-27T07:47:02.324Z,54.40
2019-03-27T07:49:34.374Z,42.93
2019-03-27T07:52:06.053Z,39.65
2019-03-27T07:54:37.327Z,37.03
2019-03-27T07:57:08.971Z,41.77
2019-03-27T07:59:40.287Z,47.13
2019-03-27T08:02:11.889Z,40.92
2019-03-27T08:04:43.549Z,47.73
2019-03-27T08:07:26.165Z,43.95
2019-03-27T08:09:47.968Z,44.50
2019-03-27T08:12:19.259Z,45.27
2019-03-27T08:14:50.517Z,47.67
2019-03-27T08:17:21.838Z,44.13
2019-03-27T08:19:54.197Z,40.95
2019-03-27T08:22:25.493Z,41.63
2019-03-27T08:24:56.765Z,39.63
2019-03-27T08:27:28.649Z,36.58
2019-03-27T08:29:59.921Z,31.57
2019-03-27T08:32:31.262Z,35.33
2019-03-27T08:35:02.529Z,33.63
2019-03-27T08:37:33.811Z,35.10
2019-03-27T08:40:05.805Z,36.50
2019-03-27T08:42:37.418Z,37.70
2019-03-27T08:45:09.327Z,35.60
2019-03-27T08:47:40.597Z,38.40
2019-03-27T08:50:13.149Z,38.00
2019-03-27T08:52:44.491Z,31.02
2019-03-27T08:55:15.829Z,26.73
2019-03-27T08:57:47.389Z,20.47
2019-03-27T09:00:23.817Z,25.08
2019-03-27T09:02:55.101Z,29.05
2019-03-27T09:05:26.378Z,30.62
2019-03-27T09:07:57.937Z,28.32
2019-03-27T09:10:29.489Z,28.75
2019-03-27T09:13:01.117Z,29.20
2019-03-27T09:15:32.658Z,27.80
2019-03-27T09:18:04.913Z,27.80
2019-03-27T09:20:36.369Z,26.20
2019-03-27T09:23:08.265Z,25.50
2019-03-27T09:25:39.539Z,26.40
2019-03-27T09:28:11.900Z,26.35
2019-03-27T09:30:43.555Z,24.43
2019-03-27T09:33:15.365Z,22.52
2019-03-27T09:35:47.129Z,22.98
2019-03-27T09:38:18.451Z,24.63
2019-03-27T09:40:49.719Z,24.63
2019-03-27T09:43:21.145Z,25.12
2019-03-27T09:45:52.417Z,24.00
2019-03-27T09:48:23.885Z,20.53
2019-03-27T09:50:55.148Z,24.60
2019-03-27T09:53:26.529Z,17.82
2019-03-27T09:55:57.830Z,19.90
2019-03-27T09:58:29.128Z,17.10
2019-03-27T10:01:02.909Z,16.00
2019-03-27T10:03:34.497Z,15.38
2019-03-27T10:06:05.927Z,16.60
2019-03-27T10:08:37.334Z,16.60
2019-03-27T10:11:08.938Z,16.27
2019-03-27T10:13:40.299Z,16.20
2019-03-27T10:16:11.569Z,14.98
2019-03-27T10:18:42.853Z,15.30
2019-03-27T10:21:14.137Z,16.20
2019-03-27T10:23:45.445Z,18.23
2019-03-27T10:26:17.502Z,16.87
2019-03-27T10:28:49.166Z,17.75
2019-03-27T10:31:21.528Z,18.15
2019-03-27T10:33:53.189Z,16.02
2019-03-27T10:36:24.465Z,16.67
2019-03-27T10:38:55.802Z,16.52
2019-03-27T10:41:28.136Z,16.90
2019-03-27T10:43:59.412Z,11.93
2019-03-27T10:46:30.660Z,15.43
2019-03-27T10:49:01.926Z,13.03
2019-03-27T10:51:33.264Z,13.60
2019-03-27T10:54:04.693Z,15.35
2019-03-27T10:56:35.950Z,13.60
2019-03-27T10:59:07.219Z,12.13
2019-03-27T11:01:39.477Z,13.85
2019-03-27T11:04:10.770Z,11.78
2019-03-27T11:06:42.015Z,11.08
2019-03-27T11:09:13.706Z,9.73
2019-03-27T11:11:44.950Z,11.38
2019-03-27T11:14:16.240Z,8.35
2019-03-27T11:16:47.473Z,11.18
2019-03-27T11:19:18.726Z,11.12
2019-03-27T11:21:50.375Z,11.00
2019-03-27T11:24:21.647Z,10.53
2019-03-27T11:26:52.893Z,10.80
2019-03-27T11:29:24.494Z,9.63
2019-03-27T11:31:55.756Z,10.93
2019-03-27T11:34:27.038Z,9.35
2019-03-27T11:36:58.626Z,12.13
2019-03-27T11:39:30.190Z,10.35
2019-03-27T11:42:01.503Z,10.72
2019-03-27T11:44:32.780Z,10.93
2019-03-27T11:47:04.206Z,11.43
2019-03-27T11:49:35.758Z,12.68
2019-03-27T11:52:07.978Z,12.43
2019-03-27T11:54:39.527Z,9.58
2019-03-27T11:57:10.831Z,9.60
2019-03-27T11:59:53.162Z,9.63
2019-03-27T12:02:15.736Z,13.05
2019-03-27T12:04:46.974Z,12.03
2019-03-27T12:07:18.598Z,11.30
2019-03-27T12:09:50.064Z,11.03
2019-03-27T12:12:21.297Z,10.32
2019-03-27T12:14:52.525Z,9.93
2019-03-27T12:17:24.109Z,11.90
2019-03-27T12:19:55.471Z,10.55
2019-03-27T12:22:26.722Z,9.60
2019-03-27T12:24:57.978Z,11.10
2019-03-27T12:27:29.235Z,12.35
2019-03-27T12:30:00.567Z,10.13
2019-03-27T12:32:33.968Z,11.50
2019-03-27T12:35:05.477Z,10.15
2019-03-27T12:37:37.330Z,9.48
2019-03-27T12:40:12.018Z,8.50
2019-03-27T12:42:41.642Z,12.35
2019-03-27T12:45:13.333Z,12.37
2019-03-27T12:47:44.862Z,10.43
2019-03-27T12:50:16.317Z,11.40
2019-03-27T12:52:47.578Z,9.55
2019-03-27T12:55:19.148Z,12.82
2019-03-27T12:57:51.401Z,9.00
2019-03-27T13:00:22.810Z,10.43
2019-03-27T13:02:54.137Z,8.70
2019-03-27T13:05:25.738Z,11.30
2019-03-27T13:07:57.372Z,11.00
2019-03-27T13:10:28.627Z,10.38
2019-03-27T13:12:59.972Z,10.78
2019-03-27T13:15:31.537Z,7.78
2019-03-27T13:18:02.863Z,8.95
2019-03-27T13:20:34.412Z,9.73
2019-03-27T13:23:06.918Z,10.55
2019-03-27T13:25:38.252Z,9.43
2019-03-27T13:28:09.797Z,9.10
2019-03-27T13:30:41.197Z,9.63
2019-03-27T13:33:12.937Z,9.30
2019-03-27T13:35:44.262Z,10.13
2019-03-27T13:38:15.773Z,8.63
2019-03-27T13:40:47.044Z,7.83
2019-03-27T13:43:18.378Z,10.35
2019-03-27T13:45:49.649Z,11.48
2019-03-27T13:48:20.898Z,10.00
2019-03-27T13:50:52.149Z,9.77
2019-03-27T13:53:23.473Z,7.97
2019-03-27T13:55:54.736Z,9.85
2019-03-27T13:58:25.996Z,10.05
2019-03-27T14:00:57.357Z,10.10
2019-03-27T14:03:28.599Z,10.15
2019-03-27T14:05:59.882Z,10.38
2019-03-27T14:08:31.146Z,11.20
2019-03-27T14:11:02.382Z,10.63
2019-03-27T14:13:33.909Z,14.63
2019-03-27T14:16:06.385Z,12.50
2019-03-27T14:18:37.624Z,12.45
2019-03-27T14:21:09.086Z,11.05
2019-03-27T14:23:40.451Z,10.55
2019-03-27T14:26:11.707Z,13.43
2019-03-27T14:28:43.275Z,12.10
2019-03-27T14:31:14.657Z,12.13
2019-03-27T14:33:45.923Z,11.78
2019-03-27T14:36:17.530Z,9.98
2019-03-27T14:38:49.033Z,10.63
2019-03-27T14:41:20.673Z,9.40
2019-03-27T14:43:51.950Z,11.60
2019-03-27T14:46:23.179Z,9.00
2019-03-27T14:48:54.401Z,9.93
2019-03-27T14:51:25.647Z,12.50
2019-03-27T14:53:56.953Z,10.75
2019-03-27T14:56:28.263Z,11.63
2019-03-27T14:59:00.516Z,13.88
2019-03-27T15:01:31.793Z,13.78
2019-03-27T15:04:03.105Z,11.38
2019-03-27T15:06:34.687Z,13.40
2019-03-27T15:09:07.519Z,16.85
2019-03-27T15:11:38.805Z,11.88
2019-03-27T15:14:10.062Z,12.20
2019-03-27T15:16:41.341Z,13.50
2019-03-27T15:19:13.161Z,14.03
2019-03-27T15:21:45.404Z,14.13
2019-03-27T15:24:16.773Z,17.77
2019-03-27T15:26:48.037Z,13.78
2019-03-27T15:29:19.294Z,13.70
2019-03-27T15:31:51.054Z,13.28
2019-03-27T15:34:22.331Z,14.13
2019-03-27T15:36:53.652Z,14.23
2019-03-27T15:39:25.165Z,12.25
2019-03-27T15:41:56.478Z,12.93
2019-03-27T15:44:27.775Z,11.68
2019-03-27T15:46:59.083Z,12.85
2019-03-27T15:49:30.375Z,15.77
2019-03-27T15:52:02.019Z,10.72
2019-03-27T15:54:33.266Z,11.48
2019-03-27T15:57:04.926Z,11.47
2019-03-27T15:59:36.239Z,13.72
2019-03-27T16:02:08.273Z,12.30
2019-03-27T16:04:41.653Z,14.28
2019-03-27T16:07:13.836Z,11.95
2019-03-27T16:09:45.074Z,11.83
2019-03-27T16:12:16.830Z,9.70
2019-03-27T16:14:49.137Z,11.45
2019-03-27T16:17:20.946Z,10.40
2019-03-27T16:19:52.201Z,10.63
2019-03-27T16:22:23.883Z,10.70
2019-03-27T16:24:55.154Z,10.63
2019-03-27T16:27:26.937Z,12.33
2019-03-27T16:29:58.397Z,12.50
2019-03-27T16:32:29.641Z,14.28
2019-03-27T16:35:00.906Z,12.18
2019-03-27T16:37:32.387Z,10.27
2019-03-27T16:40:04.645Z,13.53
2019-03-27T16:42:36.290Z,12.07
2019-03-27T16:45:09.107Z,11.40
2019-03-27T16:47:40.441Z,13.45
2019-03-27T16:50:12.378Z,10.70
2019-03-27T16:52:43.995Z,11.33
2019-03-27T16:55:15.635Z,15.70
2019-03-27T16:57:47.283Z,12.43
2019-03-27T17:00:19.653Z,11.30
2019-03-27T17:02:51.488Z,11.75
2019-03-27T17:05:22.810Z,11.38
2019-03-27T17:07:54.091Z,8.40
2019-03-27T17:10:25.463Z,12.73
2019-03-27T17:12:57.045Z,10.03
2019-03-27T17:15:28.525Z,9.33
2019-03-27T17:17:59.822Z,10.82
2019-03-27T17:20:31.581Z,8.70
2019-03-27T17:23:17.039Z,11.35
2019-03-27T17:25:36.451Z,10.32
2019-03-27T17:28:07.789Z,9.40
2019-03-27T17:30:39.409Z,10.05
2019-03-27T17:33:11.592Z,11.38
2019-03-27T17:35:42.986Z,12.50
2019-03-27T17:38:14.332Z,12.75
2019-03-27T17:40:45.781Z,12.40
2019-03-27T17:43:17.451Z,13.50
2019-03-27T17:45:48.821Z,12.95
2019-03-27T17:48:20.075Z,11.12
2019-03-27T17:50:52.368Z,11.50
2019-03-27T17:53:31.499Z,11.63
2019-03-27T17:55:56.614Z,11.68
2019-03-27T17:58:27.895Z,12.15
2019-03-27T18:01:03.098Z,12.28
2019-03-27T18:03:34.423Z,10.93
2019-03-27T18:06:05.741Z,10.55
2019-03-27T18:08:37.132Z,10.63
2019-03-27T18:11:08.380Z,10.30
2019-03-27T18:13:39.656Z,11.27
2019-03-27T18:16:10.905Z,9.80
2019-03-27T18:18:42.192Z,12.85
2019-03-27T18:21:14.689Z,11.53
2019-03-27T18:23:46.794Z,9.58
2019-03-27T18:26:18.242Z,10.90
2019-03-27T18:28:49.511Z,10.80
2019-03-27T18:31:21.858Z,11.25
2019-03-27T18:33:53.290Z,11.03
2019-03-27T18:36:24.646Z,11.83
2019-03-27T18:38:55.920Z,11.37
2019-03-27T18:41:27.174Z,14.20
2019-03-27T18:43:58.487Z,12.35
2019-03-27T18:46:30.126Z,14.38
2019-03-27T18:49:01.402Z,10.70
2019-03-27T18:51:32.741Z,11.22
2019-03-27T18:54:05.219Z,14.03
2019-03-27T18:56:36.880Z,12.15
2019-03-27T18:59:08.125Z,13.53
2019-03-27T19:01:39.553Z,11.08
2019-03-27T19:04:10.823Z,13.48
2019-03-27T19:06:42.564Z,13.72
2019-03-27T19:09:14.041Z,15.78
2019-03-27T19:11:45.435Z,12.73
2019-03-27T19:14:16.751Z,13.50
2019-03-27T19:16:48.159Z,11.95
2019-03-27T19:19:19.419Z,13.15
2019-03-27T19:21:50.930Z,13.95
2019-03-27T19:26:10.291Z,14.45
2019-03-27T19:28:41.924Z,12.58
2019-03-27T19:31:13.249Z,12.05
2019-03-27T19:33:44.522Z,13.30
2019-03-27T19:36:16.084Z,12.58
2019-03-27T19:38:47.518Z,13.58
2019-03-27T19:41:19.253Z,12.73
2019-03-27T19:43:50.542Z,12.73
2019-03-27T19:46:21.906Z,12.45
2019-03-27T19:48:53.162Z,11.90
2019-03-27T19:51:24.410Z,12.73
2019-03-27T19:53:55.799Z,12.68
2019-03-27T19:56:27.158Z,11.53
2019-03-27T19:58:58.406Z,12.85
2019-03-27T20:01:29.797Z,11.10
2019-03-27T20:04:01.288Z,12.18
2019-03-27T20:06:33.522Z,11.90
2019-03-27T20:09:07.350Z,14.47
2019-03-27T20:11:39.620Z,11.35
2019-03-27T20:14:11.405Z,13.60
2019-03-27T20:16:43.780Z,14.13
2019-03-27T20:19:15.453Z,14.33
2019-03-27T20:21:47.688Z,13.53
2019-03-27T20:24:18.944Z,12.95
2019-03-27T20:26:50.314Z,12.28
2019-03-27T20:29:21.665Z,13.65
2019-03-27T20:31:52.933Z,14.73
2019-03-27T20:34:24.205Z,12.60
2019-03-27T20:36:55.571Z,14.18
2019-03-27T20:39:27.145Z,15.83
2019-03-27T20:41:58.465Z,16.82
2019-03-27T20:44:29.995Z,15.00
2019-03-27T20:47:01.281Z,14.10
2019-03-27T20:49:32.688Z,16.63
2019-03-27T20:52:04.029Z,14.35
2019-03-27T20:54:35.378Z,12.95
2019-03-27T20:57:06.701Z,17.60
2019-03-27T20:59:37.969Z,14.30
2019-03-27T21:02:09.574Z,15.10
2019-03-27T21:04:41.444Z,12.85
2019-03-27T21:07:12.737Z,16.05
2019-03-27T21:09:44.080Z,14.90
2019-03-27T21:12:15.688Z,15.32
2019-03-27T21:14:46.947Z,19.48
2019-03-27T21:17:18.522Z,15.58
2019-03-27T21:19:50.132Z,18.02
2019-03-27T21:22:21.480Z,15.93
2019-03-27T21:24:53.059Z,16.42
2019-03-27T21:27:24.339Z,19.87
2019-03-27T21:29:57.058Z,15.10
2019-03-27T21:32:28.294Z,20.40
2019-03-27T21:34:59.620Z,18.10
2019-03-27T21:37:49.862Z,17.98
2019-03-27T21:40:21.197Z,18.35
2019-03-27T21:42:52.502Z,18.98
2019-03-27T21:45:24.216Z,15.30
2019-03-27T21:47:55.857Z,16.97
2019-03-27T21:50:27.194Z,17.57
2019-03-27T21:53:00.884Z,16.75
2019-03-27T21:55:42.123Z,20.17
2019-03-27T21:58:04.711Z,21.37
2019-03-27T22:00:38.404Z,17.95
2019-03-27T22:03:10.046Z,18.55
2019-03-27T22:05:41.485Z,17.92
2019-03-27T22:08:12.980Z,18.55
2019-03-27T22:10:44.281Z,19.00
2019-03-27T22:13:17.357Z,17.70
2019-03-27T22:15:48.659Z,22.30
2019-03-27T22:18:19.951Z,18.87
2019-03-27T22:20:51.499Z,17.85
2019-03-27T22:23:22.841Z,18.62
2019-03-27T22:25:55.109Z,22.13
2019-03-27T22:28:26.417Z,18.23
2019-03-27T22:30:57.736Z,17.70
2019-03-27T22:33:29.045Z,15.95
2019-03-27T22:36:00.422Z,18.75
2019-03-27T22:38:31.835Z,16.30
2019-03-27T22:41:03.123Z,19.20
2019-03-27T22:43:34.435Z,17.20
2019-03-27T22:46:05.824Z,17.17
2019-03-27T22:48:37.146Z,16.17
2019-03-27T22:51:08.543Z,16.35
2019-03-27T22:53:39.953Z,16.80
2019-03-27T22:56:11.867Z,16.27
2019-03-27T22:58:43.614Z,18.95
2019-03-27T23:01:14.977Z,16.85
2019-03-27T23:03:48.009Z,16.87
2019-03-27T23:06:19.273Z,17.67
2019-03-27T23:08:51.102Z,18.50
2019-03-27T23:11:22.394Z,20.33
2019-03-27T23:13:54.202Z,17.82
2019-03-27T23:16:25.500Z,16.50
2019-03-27T23:18:56.852Z,17.10
2019-03-27T23:21:28.117Z,17.87
2019-03-27T23:23:59.509Z,17.15
2019-03-27T23:26:30.816Z,17.00
2019-03-27T23:29:02.122Z,19.95
2019-03-27T23:31:33.582Z,19.37
2019-03-27T23:34:05.029Z,18.17
2019-03-27T23:36:36.284Z,18.23
2019-03-27T23:39:09.411Z,17.52
2019-03-27T23:41:41.056Z,19.07
2019-03-27T23:44:12.519Z,17.90
2019-03-27T23:46:44.872Z,17.50
2019-03-27T23:49:16.172Z,18.00
2019-03-27T23:51:47.546Z,18.27
2019-03-27T23:54:18.860Z,18.60
2019-03-27T23:56:50.217Z,18.40
2019-03-27T23:59:21.544Z,18.67
